Airfield :
LOGIN :

Register | Disclaimer

   EN    FR    IT 

 










Legend :    VFR   Marginal VFR   IFR   Intensive IFR   Very Intensive IFR
Visi :
Ceiling :
>= 8 km
>= 3000ft
5 to 8 km
1000 to 3000 ft
1500m to 5 km
500 to 1000 ft
800 to 1500m
200 to 500 ft
< 800m
< 200 ft
Symbols :   Thunderstorms  Fog  Heavy snow  Heavy precipitations  Wind > 20 kt
SIGMETs :     Misc.  Thunderstorms  Icing  Turbulence  Mountain Waves  Volcanic Ashes






- Airport Elevation : 2595 ft
- IATA code : SLM


LESA - Salamanca Matacan

CURRENT METAR :
  • 280830Z VRB01KT CAVOK 02/02 Q1025

EXPIRED METARs :
  • 280800Z 27006KT CAVOK 01/01 Q1025
  • 280730Z 00000KT CAVOK 00/M00 Q1025
  • 280700Z VRB02KT CAVOK 01/01 Q1025
  • 280630Z 29003KT 250V350 CAVOK 01/00 Q1025
  • 280600Z 28005KT CAVOK 01/00 Q1024

TAF TAF LESA
Valid from the 28 at 09:00 until the 29 at 09:00 UTC


280800Z 2809/2909 28008KT CAVOK TX10/2815Z TNM02/2906Z
PROB40
TEMPO 2900/2909 0100 FG VV001



MET'MAP, your aeronautical weather chart ! - Copyright ORBIFLY December 2007 - Disclaimer

ORBIFLY MET'MAP TEAM :

Programming & Development : Alexandra Zaïnal
Original concept : Baudouin d'Aumeries
Technical & hardware support : Manuel Goepfert
Assistance : Marc-Olivier Méhu




SOURCES & CREDITS :

   NOAA